LTCJ Airport Information

Runway Information
Runway 02 Length 10000 ft width 150 ft
Elevation 1796 ft Threshold 0 ft Heading 26
Runway 20 Length 10000 ft Width 150 ft
Elevation 1822 ft Threshold 0 ft Heading 206
Airport Frequencies
Type APP Name DIYARBAKIR Frequency 122.1 MHZ
Type GND Name GND Frequency 121.95 MHZ
Type TWR Name TWR Frequency 122.1 MHZ
Airport Navaids
Type TACAN Name Batman Frequency 111600 KHZ
Type VOR-DME Name Batman Frequency 116200 KHZ
Type NDB Name Batman Frequency 470 KHZ
Airport Weather Information & NOTAM
ADDS - METARS form results

(1415 UTC 19 January 2019)
Data provider http://aviationweather.gov/metar/data/
 
METAR text: LTCJ 191350Z VRB02KT 9999 FEW200 05/M04 Q1023 RMK RWY20 18002KT
Conditions at: LTCJ (BATMAN (TUR-AFB), TR) observed 1350 UTC 19 January 2019
Temperature: 5.0°C (41°F)
Dewpoint: -4.0°C (25°F) [RH = 52%]
Pressure (altimeter): 30.21 inches Hg (1023.0 mb)
Winds: variable direction winds at 2 MPH (2 knots; 1.0 m/s)
Visibility: 6 or more miles (10+ km)
Ceiling: at least 12,000 feet AGL
Clouds: few clouds at 20000 feet AGL
Weather: no significant weather observed at this time

METAR text: LTCJ 191320Z 00000KT 9999 FEW200 06/M04 Q1023 RMK RWY20 VRB02KT
Conditions at: LTCJ (BATMAN (TUR-AFB), TR) observed 1320 UTC 19 January 2019
Temperature: 6.0°C (43°F)
Dewpoint: -4.0°C (25°F) [RH = 49%]
Pressure (altimeter): 30.21 inches Hg (1023.0 mb)
Winds: calm
Visibility: 6 or more miles (10+ km)
Ceiling: at least 12,000 feet AGL
Clouds: few clouds at 20000 feet AGL
Weather: no significant weather observed at this time

Forecast for: LTCJ (BATMAN (TUR-AFB), TR)
Text: TAF LTCJ 191040Z 1912/2012 VRB02KT CAVOK
Forecast period: 1200 UTC 19 January 2019 to 1200 UTC 20 January 2019
Forecast type: FROM: standard forecast or significant change
Winds: variable direction winds at 2 MPH (2 knots; 1.0 m/s)
Visibility: 6 or more miles 10+ km)
Ceiling: unknown
Clouds: missing
Weather: NSW  (no significant weather)